»·PEaware :: N722PC KBFI-KYKM

N722PC :: KBFI-KYKM

FLIGHT INFORMATION

Flight Status: Arrived
Operator: Privately registered:
United States
More flights under this callsign
Pilot: Mounir D. (11581)
Aircraft: Unknown
(P32R)
More flights by this aircraft type
Origin: KBFI Boeing Field/King Co Intl
United States
Destination: KYKM Yakima Air Term/Mcallister
United States
More flights between these airports :: More routes between these airports
Route: +KENT7 BLAKO V4 YKM
File this flight plan on PilotEdge
Remarks:
Altitude:
(Current/Filed)
11,000ft
Speed:
(Current/Filed)
150kts
Departed: 04-May-17 10:50 AM
Arrived: 04-May-17 11:34 AM
Distance/Time
Traveled:
92nm/0:44
Distance/Time
To Go:
Arrived

Flight Plot

Page will automatically refresh every two minutes.

Flight plan parsing failed; only flown route is shown


Map Options




Map Legend


Flown Route
Filed Route
Departure Airport
Arrival Airport
Navaid (VOR, NDB)
Fix

Horizontal Profiles

Position Reports

Time Latitude Longitude Heading Altitude Ground
Speed
04-May-17 10:41 47.536835 -122.304869 142 23ft 0kts
04-May-17 10:42 47.536835 -122.304869 142 23ft 0kts
04-May-17 10:43 47.536835 -122.304869 142 23ft 0kts
04-May-17 10:44 47.536835 -122.304869 142 23ft 0kts
04-May-17 10:45 47.536835 -122.304869 142 23ft 0kts
04-May-17 10:46 47.536835 -122.304869 142 23ft 0kts
04-May-17 10:47 47.537354 -122.306058 335 23ft 14kts
04-May-17 10:48 47.541018 -122.309794 250 23ft 0kts
04-May-17 10:49 47.541018 -122.309794 250 23ft 0kts
04-May-17 10:50 47.541018 -122.309794 250 23ft 0kts
04-May-17 10:51 47.541018 -122.309794 250 23ft 0kts
04-May-17 10:52 47.537317 -122.308729 151 23ft 78kts
04-May-17 10:53 47.514533 -122.289031 151 1232ft 105kts
04-May-17 10:54 47.491906 -122.263342 140 2687ft 105kts
04-May-17 10:55 47.468859 -122.236640 144 3945ft 115kts
04-May-17 10:56 47.436186 -122.208815 209 4097ft 143kts
04-May-17 10:57 47.424244 -122.238293 169 5846ft 83kts
04-May-17 10:58 47.407782 -122.217579 108 6947ft 95kts
04-May-17 10:59 47.397200 -122.184684 135 7929ft 98kts
04-May-17 11:00 47.379895 -122.152350 143 8897ft 103kts
04-May-17 11:01 47.360727 -122.121044 146 9874ft 104kts
04-May-17 11:02 47.341259 -122.091200 149 10796ft 105kts
04-May-17 11:03 47.318080 -122.051741 134 10996ft 156kts
04-May-17 11:04 47.293349 -121.996268 132 10985ft 168kts
04-May-17 11:05 47.267656 -121.939128 133 10984ft 170kts
04-May-17 11:06 47.241582 -121.881705 133 10984ft 170kts
04-May-17 11:07 47.215672 -121.824860 133 10984ft 170kts
04-May-17 11:08 47.189786 -121.768117 133 11064ft 166kts
04-May-17 11:09 47.164052 -121.712031 133 11093ft 169kts
04-May-17 11:10 47.137816 -121.654789 133 11093ft 170kts
04-May-17 11:11 47.111821 -121.598242 133 11093ft 172kts
04-May-17 11:12 47.085275 -121.540857 129 11093ft 171kts
04-May-17 11:13 47.058730 -121.484306 126 11100ft 167kts
04-May-17 11:14 47.033019 -121.428226 121 11089ft 169kts
04-May-17 11:15 47.007277 -121.372007 122 11091ft 164kts
04-May-17 11:16 46.985236 -121.324414 123 11093ft 162kts
04-May-17 11:17 46.960697 -121.271371 124 11098ft 174kts
04-May-17 11:18 46.933635 -121.213808 126 11072ft 175kts
04-May-17 11:19 46.907026 -121.155726 134 11032ft 173kts
04-May-17 11:20 46.884546 -121.108311 134 11039ft 171kts
04-May-17 11:21 46.866655 -121.070131 133 11039ft 171kts
04-May-17 11:22 46.840708 -121.014732 133 11040ft 171kts
04-May-17 11:23 46.814034 -120.958024 133 11040ft 171kts
04-May-17 11:24 46.787520 -120.901822 133 10994ft 173kts
04-May-17 11:25 46.759039 -120.841569 131 9853ft 191kts
04-May-17 11:26 46.729121 -120.778192 130 8367ft 190kts
04-May-17 11:27 46.704967 -120.727223 129 7218ft 181kts
04-May-17 11:28 46.684815 -120.685216 129 6196ft 177kts
04-May-17 11:29 46.650219 -120.623641 129 4681ft 171kts
04-May-17 11:30 46.624575 -120.580856 116 3568ft 171kts
04-May-17 11:31 46.605684 -120.511115 106 2771ft 151kts
04-May-17 11:32 46.592179 -120.464982 123 2225ft 155kts
04-May-17 11:33 46.566103 -120.451341 205 1877ft 99kts
04-May-17 11:34 46.566130 -120.488514 304 1425ft 83kts
04-May-17 11:35 46.564538 -120.516689 211 1208ft 76kts
04-May-17 11:36 46.568284 -120.539603 57 1102ft 4kts
04-May-17 11:37 46.569049 -120.540922 274 1102ft 16kts
04-May-17 11:38 46.569879 -120.542157 336 1102ft 0kts

Navigation Log

Ident Type
Flight plan parsing failed, navigation log unavailable